North Lebanon, Pennsylvania
Current Conditions -  °F | °C
As of 10:58 PM on Wednesday 26 Nov 2014 (Local Time) from KMUI Reporting Station
Overcast Overcast  
Wind Chill: 35°   Ceiling: 1700
Heat Index: 35°   Visibility: 10mi
Dew Point: 29°   Wind: 3mph
Humidity: 79%   Direction: NA
Pressure: 29.94"   Gusts: NA
Location:  40.2957°N, 76.4189°W
Report Text: KMUI 270358Z AUTO VRB03KT 10SM OVC017 01/M02 A2994 RMK AO2 SLP146 T00141019 $
Loading
Personal Weather Stations






























Interactive Weather Map New forecast layout! Learn more

10-Day Weather Forecast

Advertisements
Track Severe Weather on mobile